Time;durP1;ratioP1;P1;durP2;ratioP2;P2;SDS_P1;SDS_P2;PMS_P1;PMS_P2;Temp;Humidity;BMP_temperature;BMP_pressure;BME280_temperature;BME280_humidity;BME280_pressure;Samples;Min_cycle;Max_cycle;Signal;HPM_P1;HPM_P2
2023/08/21 00:02:07;;;;;;;8.55;7.82;;;;;;;26.39;62.19;95839.09;6272502;22;20180;-83
2023/08/21 00:04:33;;;;;;;9.10;8.20;;;;;;;26.37;62.15;95835.13;6273899;22;20172;-83
2023/08/21 00:07:00;;;;;;;8.65;7.90;;;;;;;26.35;62.03;95832.00;6273860;22;20200;-84
2023/08/21 00:09:26;;;;;;;8.35;7.65;;;;;;;26.30;62.04;95839.91;6273918;22;20701;-83
2023/08/21 00:11:52;;;;;;;8.63;7.78;;;;;;;26.30;62.70;95842.56;6273597;22;20172;-83
2023/08/21 00:14:20;;;;;;;8.52;7.82;;;;;;;26.22;62.76;95835.16;6274187;22;20175;-83
2023/08/21 00:16:47;;;;;;;8.40;7.70;;;;;;;26.15;62.70;95830.97;6274298;22;20194;-83
2023/08/21 00:19:13;;;;;;;8.32;7.53;;;;;;;26.21;62.41;95837.00;6272613;22;20522;-83
2023/08/21 00:21:39;;;;;;;8.63;7.95;;;;;;;26.15;62.53;95843.38;6273503;22;20176;-84
2023/08/21 00:24:06;;;;;;;8.80;8.00;;;;;;;26.12;62.79;95854.47;6273489;22;20176;-83
2023/08/21 00:26:33;;;;;;;8.18;7.57;;;;;;;26.15;63.31;95856.56;6272697;22;20196;-83
2023/08/21 00:28:59;;;;;;;9.27;8.57;;;;;;;26.16;63.05;95850.25;6273468;22;20176;-83
2023/08/21 00:31:27;;;;;;;11.07;8.70;;;;;;;26.25;62.96;95845.97;6273610;22;20177;-83
2023/08/21 00:33:53;;;;;;;9.25;8.35;;;;;;;26.26;62.68;95834.34;6272562;22;20196;-83
2023/08/21 00:36:20;;;;;;;8.50;7.80;;;;;;;26.19;62.38;95838.31;6272815;22;20698;-83
2023/08/21 00:38:47;;;;;;;8.13;7.40;;;;;;;26.11;62.96;95843.13;6273404;22;20176;-83
2023/08/21 00:41:13;;;;;;;8.52;7.93;;;;;;;26.09;62.78;95849.72;6273154;22;20176;-84
2023/08/21 00:43:40;;;;;;;8.60;7.80;;;;;;;26.05;63.21;95859.22;6272574;22;20530;-84
2023/08/21 00:46:07;;;;;;;7.97;7.40;;;;;;;26.00;63.19;95854.75;6273675;22;20196;-83
2023/08/21 00:48:35;;;;;;;8.60;7.90;;;;;;;26.04;62.99;95853.16;6274134;22;20176;-83
2023/08/21 00:51:01;;;;;;;7.80;7.20;;;;;;;25.95;62.87;95841.56;6273271;22;20259;-83
2023/08/21 00:53:28;;;;;;;8.45;7.75;;;;;;;25.89;63.40;95853.19;6273378;22;20447;-84
2023/08/21 00:55:56;;;;;;;12.05;10.88;;;;;;;25.82;63.74;95855.28;6273673;22;20192;-83
2023/08/21 00:58:22;;;;;;;29.58;26.98;;;;;;;25.79;62.92;95838.16;6273262;22;20515;-84
2023/08/21 01:00:50;;;;;;;15.35;14.10;;;;;;;25.76;62.32;95793.06;6272402;22;20523;-84
2023/08/21 01:03:17;;;;;;;12.55;11.25;;;;;;;25.84;61.54;95781.16;6273324;22;20179;-84
2023/08/21 01:05:44;;;;;;;9.00;8.30;;;;;;;25.87;61.84;95789.34;6272211;22;20376;-83
2023/08/21 01:08:15;;;;;;;11.43;10.35;;;;;;;25.83;61.97;95787.50;6273459;22;20569;-84
2023/08/21 01:10:50;;;;;;;10.35;9.45;;;;;;;25.77;61.74;95792.81;6273281;22;20168;-84
2023/08/21 01:13:28;;;;;;;8.52;7.72;;;;;;;25.73;61.90;95801.50;6273381;22;20160;-83
2023/08/21 01:15:56;;;;;;;7.75;7.15;;;;;;;25.63;62.10;95802.28;6273081;22;20199;-84
2023/08/21 01:18:23;;;;;;;7.25;6.65;;;;;;;25.54;62.24;95817.06;6273896;22;20168;-83
2023/08/21 01:20:52;;;;;;;7.43;6.75;;;;;;;25.56;62.24;95820.22;6274736;22;20230;-84
2023/08/21 01:23:34;;;;;;;8.18;7.47;;;;;;;25.47;62.61;95829.72;6273574;22;20180;-83
2023/08/21 01:26:00;;;;;;;7.53;6.90;;;;;;;25.37;63.43;95841.06;6274854;22;20268;-83
2023/08/21 01:28:27;;;;;;;7.47;6.68;;;;;;;25.37;63.83;95850.81;6274367;22;20199;-83
2023/08/21 01:31:00;;;;;;;8.63;7.25;;;;;;;25.39;63.42;95836.31;6274238;22;20172;-83
2023/08/21 01:33:30;;;;;;;7.55;6.85;;;;;;;25.39;63.20;95840.81;6274474;22;20822;-84
2023/08/21 01:35:58;;;;;;;7.05;6.45;;;;;;;25.47;62.70;95832.34;6274249;22;20188;-83
2023/08/21 01:38:25;;;;;;;7.45;6.70;;;;;;;25.50;62.53;95813.38;6273615;22;20722;-84
2023/08/21 01:40:54;;;;;;;6.95;6.35;;;;;;;25.47;62.50;95803.34;6273943;22;20631;-83
2023/08/21 01:43:20;;;;;;;8.90;6.28;;;;;;;25.47;61.89;95796.22;6273713;22;20184;-83
2023/08/21 01:45:47;;;;;;;6.90;6.25;;;;;;;25.42;62.39;95806.75;6273807;22;20202;-84
2023/08/21 01:48:13;;;;;;;6.68;6.18;;;;;;;25.46;62.17;95793.84;6273882;22;20511;-83
2023/08/21 01:50:40;;;;;;;6.70;6.00;;;;;;;25.52;61.68;95790.16;6274085;22;20173;-83
2023/08/21 01:53:06;;;;;;;7.20;6.50;;;;;;;25.47;61.70;95795.44;6274064;22;20187;-84
2023/08/21 01:55:33;;;;;;;7.57;6.32;;;;;;;25.32;62.71;95825.22;6272943;22;20643;-83
2023/08/21 01:58:00;;;;;;;7.13;6.47;;;;;;;25.31;61.98;95812.31;6274161;22;20183;-84
2023/08/21 02:00:27;;;;;;;7.03;6.35;;;;;;;25.20;62.18;95803.63;6274763;22;20180;-84
2023/08/21 02:02:53;;;;;;;6.70;6.00;;;;;;;25.13;62.29;95803.09;6273722;22;20183;-84
2023/08/21 02:05:20;;;;;;;6.45;5.95;;;;;;;25.09;62.08;95818.63;6274275;22;20514;-84
2023/08/21 02:07:46;;;;;;;6.55;5.97;;;;;;;25.10;62.24;95814.16;6273884;22;20193;-83
2023/08/21 02:10:13;;;;;;;6.30;5.68;;;;;;;25.05;62.29;95804.38;6273679;22;20180;-83
2023/08/21 02:12:39;;;;;;;7.32;5.85;;;;;;;25.00;62.79;95829.97;6274113;22;20207;-84
2023/08/21 02:15:10;;;;;;;6.70;6.10;;;;;;;24.95;62.75;95832.56;6273924;22;20176;-84
2023/08/21 02:17:36;;;;;;;6.20;5.70;;;;;;;24.89;62.95;95834.38;6273626;22;20214;-84
2023/08/21 02:20:03;;;;;;;6.40;5.80;;;;;;;24.87;62.92;95840.94;6273255;22;20173;-83
2023/08/21 02:22:29;;;;;;;6.03;5.60;;;;;;;24.77;63.66;95852.25;6273362;22;20210;-84
2023/08/21 02:24:56;;;;;;;7.28;6.05;;;;;;;24.80;63.62;95862.28;6273611;22;20511;-83
2023/08/21 02:27:22;;;;;;;8.55;5.90;;;;;;;24.76;63.81;95859.38;6274503;22;20200;-83
2023/08/21 02:29:49;;;;;;;7.05;5.75;;;;;;;24.87;63.21;95848.84;6275261;22;20179;-83
2023/08/21 02:32:16;;;;;;;6.40;5.90;;;;;;;24.90;63.38;95845.69;6276527;22;20168;-83
2023/08/21 02:34:43;;;;;;;6.68;6.07;;;;;;;24.88;63.56;95853.84;6275600;22;20496;-82
2023/08/21 02:37:09;;;;;;;6.68;5.88;;;;;;;24.89;63.61;95859.91;6276144;22;20188;-83
2023/08/21 02:39:35;;;;;;;6.57;5.97;;;;;;;24.87;63.51;95856.75;6276639;22;20541;-83
2023/08/21 02:42:02;;;;;;;7.90;6.47;;;;;;;24.83;63.83;95859.09;6276133;22;20176;-84
2023/08/21 02:44:28;;;;;;;6.82;6.22;;;;;;;24.78;64.07;95862.53;6274240;22;20207;-83
2023/08/21 02:46:55;;;;;;;6.57;6.07;;;;;;;24.74;64.29;95869.38;6275285;22;20196;-83
2023/08/21 02:49:22;;;;;;;6.63;6.00;;;;;;;24.71;64.38;95887.53;6276531;22;20199;-84
2023/08/21 02:51:49;;;;;;;7.15;5.85;;;;;;;24.68;64.44;95880.94;6275797;22;20801;-83
2023/08/21 02:54:15;;;;;;;7.20;6.50;;;;;;;24.70;64.68;95891.19;6275972;22;20183;-84
2023/08/21 02:56:42;;;;;;;7.13;6.53;;;;;;;24.76;64.39;95893.59;6275663;22;20192;-83
2023/08/21 02:59:08;;;;;;;6.72;6.13;;;;;;;24.72;64.96;95897.00;6275300;22;20621;-83
2023/08/21 03:01:35;;;;;;;6.70;6.07;;;;;;;24.66;64.95;95905.94;6275196;22;20183;-82
2023/08/21 03:04:01;;;;;;;6.70;6.10;;;;;;;24.63;65.71;95924.91;6275297;22;20831;-82
2023/08/21 03:06:29;;;;;;;6.25;5.80;;;;;;;24.65;65.70;95930.69;6275830;22;20977;-83
2023/08/21 03:08:55;;;;;;;7.05;6.10;;;;;;;24.62;65.84;95929.38;6277186;22;20192;-84
2023/08/21 03:11:22;;;;;;;7.07;6.47;;;;;;;24.56;66.21;95940.13;6276945;22;20187;-84
2023/08/21 03:13:48;;;;;;;6.70;6.10;;;;;;;24.65;66.10;95939.38;6275687;22;20548;-84
2023/08/21 03:16:15;;;;;;;6.45;5.93;;;;;;;24.74;65.28;95923.88;6275212;22;20211;-83
2023/08/21 03:18:55;;;;;;;6.88;6.20;;;;;;;24.76;65.94;95929.69;6275857;22;20174;-84
2023/08/21 03:21:22;;;;;;;6.95;6.35;;;;;;;24.81;65.47;95923.66;6275814;22;20381;-84
2023/08/21 03:23:51;;;;;;;6.55;5.95;;;;;;;24.81;65.67;95924.44;6276194;22;20165;-84
2023/08/21 03:26:17;;;;;;;6.95;6.30;;;;;;;24.69;65.70;95942.28;6275947;22;20200;-83
2023/08/21 03:28:44;;;;;;;6.97;6.30;;;;;;;24.52;66.19;95954.84;6274910;22;20176;-84
2023/08/21 03:31:10;;;;;;;7.03;6.18;;;;;;;24.52;66.47;95960.09;6275049;22;20184;-83
2023/08/21 03:33:37;;;;;;;7.05;6.55;;;;;;;24.49;66.62;95969.31;6275768;22;20180;-83
2023/08/21 03:36:04;;;;;;;6.82;6.22;;;;;;;24.50;66.10;95959.56;6275143;22;20200;-84
2023/08/21 03:38:30;;;;;;;6.93;6.30;;;;;;;24.49;66.40;95965.88;6275329;22;20172;-83
2023/08/21 03:40:58;;;;;;;6.25;5.65;;;;;;;24.53;66.32;95954.59;6275622;22;20172;-84
2023/08/21 03:43:24;;;;;;;6.65;6.05;;;;;;;24.57;66.25;95955.69;6275360;22;20180;-84
2023/08/21 03:45:51;;;;;;;6.38;5.82;;;;;;;24.53;66.53;95953.81;6275389;22;20196;-84
2023/08/21 03:48:17;;;;;;;6.90;6.30;;;;;;;24.45;66.72;95963.75;6275239;22;20363;-84
2023/08/21 03:50:43;;;;;;;6.63;6.03;;;;;;;24.34;67.30;95985.81;6275894;22;20183;-83
2023/08/21 03:53:10;;;;;;;6.95;6.35;;;;;;;24.25;67.20;95989.94;6276539;22;20180;-84
2023/08/21 03:55:36;;;;;;;6.85;6.30;;;;;;;24.16;68.20;96012.50;6276546;22;20191;-84
2023/08/21 03:58:04;;;;;;;7.32;6.20;;;;;;;24.15;67.97;96007.47;6276612;22;20180;-83
2023/08/21 04:00:30;;;;;;;6.30;5.80;;;;;;;24.23;69.16;96047.28;6280183;22;20176;-82
2023/08/21 04:02:58;;;;;;;6.88;6.20;;;;;;;24.43;69.88;96068.53;6279811;22;20187;-82
2023/08/21 04:05:24;;;;;;;6.88;6.20;;;;;;;24.66;69.71;96048.13;6279031;22;20539;-82
2023/08/21 04:07:51;;;;;;;8.30;6.22;;;;;;;24.75;68.43;96018.44;6275598;22;20192;-82
2023/08/21 04:10:17;;;;;;;6.82;6.22;;;;;;;24.73;66.84;95967.06;6275919;22;20180;-82
2023/08/21 04:12:44;;;;;;;6.65;6.10;;;;;;;24.75;68.54;96012.38;6276841;22;20164;-82
2023/08/21 04:15:12;;;;;;;6.72;6.22;;;;;;;24.78;66.57;95961.84;6275413;22;20828;-82
2023/08/21 04:17:38;;;;;;;6.95;6.35;;;;;;;24.85;66.99;95977.38;6277029;22;20193;-83
2023/08/21 04:20:06;;;;;;;6.95;5.85;;;;;;;25.02;67.67;96005.16;6275042;22;20191;-82
2023/08/21 04:22:32;;;;;;;7.10;6.50;;;;;;;25.05;66.49;95962.50;6275446;22;20172;-82
2023/08/21 04:24:58;;;;;;;6.60;6.05;;;;;;;25.13;66.17;95962.00;6274978;22;20821;-82
2023/08/21 04:27:25;;;;;;;7.20;6.50;;;;;;;25.19;65.85;95957.53;6276523;22;20196;-82
2023/08/21 04:29:51;;;;;;;8.80;6.72;;;;;;;25.19;64.92;95907.47;6276197;22;20179;-84
2023/08/21 04:32:19;;;;;;;8.07;7.13;;;;;;;25.05;64.55;95919.53;6275915;22;20176;-84
2023/08/21 04:34:45;;;;;;;7.15;6.53;;;;;;;24.99;65.09;95920.59;6272476;22;20267;-84
2023/08/21 04:37:12;;;;;;;7.68;6.72;;;;;;;24.94;64.83;95923.16;6271869;22;20219;-83
2023/08/21 04:39:38;;;;;;;7.78;7.00;;;;;;;24.75;66.04;95949.97;6272822;22;20661;-83
2023/08/21 04:42:05;;;;;;;7.07;6.38;;;;;;;24.77;66.00;95947.88;6272624;22;20180;-83
2023/08/21 04:44:31;;;;;;;8.15;6.68;;;;;;;24.76;66.03;95959.47;6272780;22;20180;-83
2023/08/21 04:46:58;;;;;;;6.97;6.40;;;;;;;24.77;66.00;95954.97;6272898;22;20193;-83
2023/08/21 04:49:25;;;;;;;7.65;6.38;;;;;;;24.79;65.72;95953.69;6270657;22;20245;-83
2023/08/21 04:51:52;;;;;;;7.40;6.55;;;;;;;24.71;66.34;95969.97;6274098;22;20689;-83
2023/08/21 04:54:18;;;;;;;6.93;6.32;;;;;;;24.71;66.46;95982.34;6274020;22;20176;-85
2023/08/21 04:56:45;;;;;;;7.07;6.45;;;;;;;24.67;66.85;95982.03;6274223;22;20198;-85
2023/08/21 04:59:11;;;;;;;7.60;6.90;;;;;;;24.76;66.44;95975.25;6274275;22;20251;-84
2023/08/21 05:01:37;;;;;;;6.85;6.25;;;;;;;24.76;66.64;95974.47;6272600;22;20206;-84
2023/08/21 05:04:04;;;;;;;7.50;6.30;;;;;;;24.73;67.09;95988.94;6273837;22;20176;-85
2023/08/21 05:06:32;;;;;;;7.18;6.50;;;;;;;24.74;66.62;95990.53;6273225;22;20702;-84
2023/08/21 05:08:58;;;;;;;7.35;6.43;;;;;;;24.79;66.10;95972.13;6273097;22;20192;-85
2023/08/21 05:11:25;;;;;;;6.35;5.80;;;;;;;24.87;66.30;95959.50;6273770;22;20182;-85
2023/08/21 05:13:51;;;;;;;6.43;5.88;;;;;;;24.96;66.16;95960.63;6274085;22;20176;-85
2023/08/21 05:16:18;;;;;;;7.88;6.22;;;;;;;25.02;65.79;95959.56;6273561;22;20200;-85
2023/08/21 05:18:44;;;;;;;6.95;6.32;;;;;;;25.07;65.58;95970.94;6273631;22;20176;-84
2023/08/21 05:21:10;;;;;;;7.22;5.97;;;;;;;25.11;65.70;95973.84;6274363;22;20189;-84
2023/08/21 05:23:38;;;;;;;9.00;6.28;;;;;;;25.12;66.22;95984.13;6273467;22;20179;-84
2023/08/21 05:26:05;;;;;;;6.75;6.10;;;;;;;25.22;65.75;95977.28;6273457;22;20205;-84
2023/08/21 05:28:31;;;;;;;6.95;5.95;;;;;;;25.29;65.62;95973.38;6274771;22;20199;-84
2023/08/21 05:30:58;;;;;;;7.25;6.43;;;;;;;25.37;65.34;95953.63;6275196;22;20172;-84
2023/08/21 05:33:25;;;;;;;6.13;5.60;;;;;;;25.41;65.24;95950.19;6274737;22;20176;-84
2023/08/21 05:35:51;;;;;;;8.23;5.70;;;;;;;25.50;64.28;95939.16;6273667;22;20686;-84
2023/08/21 05:38:17;;;;;;;9.50;5.80;;;;;;;25.57;64.29;95923.88;6273825;22;20177;-84
2023/08/21 05:40:45;;;;;;;8.80;6.28;;;;;;;25.56;63.85;95917.81;6272649;22;20348;-83
2023/08/21 05:43:12;;;;;;;6.05;5.53;;;;;;;25.58;64.39;95933.38;6273336;22;20191;-85
2023/08/21 05:45:38;;;;;;;6.45;5.93;;;;;;;25.60;64.00;95929.38;6272942;22;20187;-84
2023/08/21 05:48:05;;;;;;;7.63;5.88;;;;;;;25.62;63.57;95922.03;6272835;22;20507;-85
2023/08/21 05:50:32;;;;;;;8.15;5.85;;;;;;;25.57;63.48;95929.16;6272569;22;20238;-85
2023/08/21 05:53:01;;;;;;;8.80;5.95;;;;;;;25.54;64.01;95927.81;6275669;22;20178;-85
2023/08/21 05:55:27;;;;;;;11.07;6.35;;;;;;;25.58;63.94;95920.19;6276870;22;20176;-85
2023/08/21 05:57:55;;;;;;;9.82;6.10;;;;;;;25.60;63.19;95920.69;6276059;22;20172;-84
2023/08/21 06:00:22;;;;;;;7.78;5.93;;;;;;;25.60;63.27;95910.94;6277444;22;20173;-85
2023/08/21 06:02:48;;;;;;;6.78;6.10;;;;;;;25.59;63.03;95900.66;6275948;22;20183;-85
2023/08/21 06:05:15;;;;;;;7.38;6.32;;;;;;;25.68;62.59;95886.72;6276236;22;20183;-84
2023/08/21 06:07:41;;;;;;;6.63;5.93;;;;;;;25.72;62.21;95882.50;6276764;22;20519;-84
2023/08/21 06:10:11;;;;;;;11.65;6.20;;;;;;;25.80;62.02;95876.66;6276091;22;20183;-84
2023/08/21 06:12:37;;;;;;;6.50;5.90;;;;;;;25.84;62.20;95869.00;6276126;22;20179;-84
2023/08/21 06:15:08;;;;;;;7.55;5.75;;;;;;;25.92;61.69;95863.22;6276333;22;20172;-85
2023/08/21 06:17:35;;;;;;;6.97;6.18;;;;;;;26.00;61.06;95854.75;6276245;22;20196;-84
2023/08/21 06:20:02;;;;;;;8.45;5.80;;;;;;;26.07;61.31;95844.69;6275011;22;20788;-84
2023/08/21 06:22:29;;;;;;;10.10;6.13;;;;;;;26.12;60.58;95831.50;6276237;22;20202;-84
2023/08/21 06:24:55;;;;;;;6.68;5.68;;;;;;;26.20;60.64;95845.97;6276038;22;20184;-84
2023/08/21 06:27:22;;;;;;;10.18;6.32;;;;;;;26.26;60.78;95826.44;6276115;22;20196;-84
2023/08/21 06:29:48;;;;;;;7.38;6.43;;;;;;;26.30;60.12;95830.16;6275982;22;20541;-85
2023/08/21 06:32:16;;;;;;;7.40;5.95;;;;;;;26.36;60.10;95812.44;6277425;22;20235;-85
2023/08/21 06:34:42;;;;;;;6.90;6.10;;;;;;;26.30;59.89;95803.75;6275830;22;20176;-85
2023/08/21 06:37:09;;;;;;;7.55;6.30;;;;;;;26.32;59.88;95814.84;6277337;22;20202;-84
2023/08/21 06:39:35;;;;;;;7.80;6.32;;;;;;;26.37;60.30;95820.06;6277695;22;20172;-85
2023/08/21 06:42:02;;;;;;;7.05;6.15;;;;;;;26.43;60.27;95819.00;6276654;22;20176;-84
2023/08/21 06:44:28;;;;;;;6.93;6.22;;;;;;;26.51;60.16;95819.50;6276684;22;20180;-85
2023/08/21 06:46:55;;;;;;;9.18;6.20;;;;;;;26.51;59.47;95798.38;6277187;22;20192;-84
2023/08/21 06:49:23;;;;;;;8.98;6.30;;;;;;;26.62;59.14;95791.97;6277440;22;20192;-86
2023/08/21 06:51:49;;;;;;;7.25;6.28;;;;;;;26.70;58.83;95786.13;6276205;22;20176;-84
2023/08/21 06:54:16;;;;;;;7.90;5.97;;;;;;;26.79;58.21;95764.13;6276980;22;20368;-84
2023/08/21 06:56:42;;;;;;;6.80;6.10;;;;;;;26.92;58.67;95767.22;6275440;22;20275;-84
2023/08/21 06:59:08;;;;;;;8.60;6.28;;;;;;;27.01;57.51;95737.31;6276840;22;20176;-84
2023/08/21 07:01:35;;;;;;;10.35;6.50;;;;;;;27.16;57.34;95718.69;6275148;22;20187;-84
2023/08/21 07:04:01;;;;;;;7.07;6.35;;;;;;;27.33;57.31;95720.91;6276196;22;20176;-84
2023/08/21 07:06:29;;;;;;;8.18;6.00;;;;;;;27.47;57.46;95731.63;6275140;22;20196;-84
2023/08/21 07:08:56;;;;;;;7.22;6.00;;;;;;;27.51;57.30;95714.94;6275871;22;20192;-84
2023/08/21 07:11:22;;;;;;;7.47;6.45;;;;;;;27.58;56.69;95708.53;6276023;22;20179;-83
2023/08/21 07:13:50;;;;;;;8.10;6.50;;;;;;;27.79;56.44;95708.03;6276238;22;20176;-83
2023/08/21 07:16:16;;;;;;;6.95;6.25;;;;;;;27.83;55.80;95658.75;6277453;22;20199;-83
2023/08/21 07:18:42;;;;;;;7.00;6.38;;;;;;;27.98;55.71;95667.56;6276959;22;20179;-84
2023/08/21 07:21:09;;;;;;;9.50;6.68;;;;;;;28.13;55.77;95660.22;6276793;22;20183;-83
2023/08/21 07:23:37;;;;;;;12.73;6.50;;;;;;;28.24;53.98;95609.81;6276054;22;20555;-83
2023/08/21 07:26:04;;;;;;;11.40;6.40;;;;;;;28.31;54.13;95595.09;6275914;22;20200;-83
2023/08/21 07:28:31;;;;;;;8.73;6.00;;;;;;;28.45;53.38;95579.28;6276252;22;20196;-82
2023/08/21 07:30:57;;;;;;;7.50;6.60;;;;;;;28.61;53.15;95575.31;6277127;22;20180;-83
2023/08/21 07:33:24;;;;;;;8.52;6.32;;;;;;;28.70;53.20;95567.47;6276042;22;20180;-83
2023/08/21 07:35:58;;;;;;;7.20;5.85;;;;;;;28.84;52.95;95547.91;6276942;22;20192;-83
2023/08/21 07:38:24;;;;;;;7.15;6.47;;;;;;;28.85;51.26;95485.88;6277362;22;20216;-84
2023/08/21 07:41:02;;;;;;;6.60;6.05;;;;;;;28.94;51.39;95482.50;6276086;22;20180;-85
2023/08/21 07:43:28;;;;;;;6.82;6.20;;;;;;;29.09;51.35;95485.63;6276334;22;20549;-85
2023/08/21 07:45:55;;;;;;;7.45;6.10;;;;;;;29.27;50.76;95476.00;6278449;22;20196;-84
2023/08/21 07:48:21;;;;;;;6.82;6.22;;;;;;;29.32;50.88;95470.59;6277358;22;20203;-85
2023/08/21 07:50:52;;;;;;;6.90;6.30;;;;;;;29.39;50.63;95454.28;6277704;22;20242;-84
2023/08/21 07:53:18;;;;;;;6.53;6.03;;;;;;;29.54;51.02;95456.63;6277232;22;20218;-84
2023/08/21 07:55:46;;;;;;;9.45;6.93;;;;;;;29.61;49.70;95419.06;6276869;22;20552;-84
2023/08/21 07:58:14;;;;;;;10.77;6.57;;;;;;;29.73;49.20;95371.50;6275306;22;20199;-83
2023/08/21 08:00:40;;;;;;;11.38;7.13;;;;;;;29.90;49.18;95383.03;6275111;22;20238;-83
2023/08/21 08:03:07;;;;;;;17.02;8.85;;;;;;;30.03;49.24;95389.38;6274693;22;20227;-84
2023/08/21 08:05:34;;;;;;;8.52;7.18;;;;;;;30.16;49.31;95391.16;6274932;22;20245;-84
2023/08/21 08:08:00;;;;;;;6.63;6.13;;;;;;;30.30;48.65;95372.47;6275934;22;20173;-84
2023/08/21 08:10:27;;;;;;;7.60;6.53;;;;;;;30.40;48.32;95366.91;6275796;22;20559;-84
2023/08/21 08:12:54;;;;;;;8.38;6.40;;;;;;;30.58;48.11;95356.34;6274259;22;20172;-83
2023/08/21 08:15:22;;;;;;;7.63;6.30;;;;;;;30.86;48.18;95357.66;6275311;22;20172;-83
2023/08/21 08:17:51;;;;;;;7.78;6.03;;;;;;;30.84;47.64;95304.00;6275126;22;20196;-84
2023/08/21 08:20:18;;;;;;;6.20;5.70;;;;;;;31.02;46.66;95270.22;6275325;22;20571;-83
2023/08/21 08:22:44;;;;;;;6.60;6.07;;;;;;;31.16;46.59;95270.88;6274246;22;20176;-83
2023/08/21 08:25:11;;;;;;;6.47;5.97;;;;;;;31.26;46.51;95251.91;6275248;22;20177;-83
2023/08/21 08:27:38;;;;;;;6.85;6.35;;;;;;;31.45;46.45;95262.22;6274215;22;20695;-84
2023/08/21 08:30:05;;;;;;;6.97;6.35;;;;;;;31.56;46.43;95250.13;6275683;22;20218;-84
2023/08/21 08:32:33;;;;;;;9.02;6.57;;;;;;;31.63;46.37;95253.06;6274346;22;20176;-84
2023/08/21 08:34:59;;;;;;;6.85;6.20;;;;;;;31.76;45.72;95206.06;6274977;22;20176;-84
2023/08/21 08:37:26;;;;;;;6.80;6.25;;;;;;;31.87;44.66;95170.00;6274682;22;20216;-84
2023/08/21 08:39:52;;;;;;;6.75;6.05;;;;;;;31.83;43.68;95097.97;6274679;22;20176;-84
2023/08/21 08:42:19;;;;;;;7.60;6.90;;;;;;;31.91;43.79;95113.13;6274489;22;20175;-83
2023/08/21 08:44:45;;;;;;;6.72;6.13;;;;;;;32.07;43.33;95104.53;6273292;22;20184;-83
2023/08/21 08:47:12;;;;;;;6.80;6.20;;;;;;;32.15;43.13;95079.72;6274580;22;20192;-84
2023/08/21 08:49:41;;;;;;;6.57;5.97;;;;;;;32.36;43.21;95103.72;6275211;22;20192;-84
2023/08/21 08:52:08;;;;;;;6.40;5.82;;;;;;;32.38;42.01;95050.88;6275067;22;20195;-84
2023/08/21 08:54:35;;;;;;;7.63;6.72;;;;;;;32.54;42.42;95067.78;6275019;22;20183;-84
2023/08/21 08:57:02;;;;;;;6.20;5.60;;;;;;;32.72;41.01;94988.41;6275587;22;20241;-84
2023/08/21 08:59:30;;;;;;;6.53;5.97;;;;;;;32.92;40.44;94953.66;6276323;22;20421;-83
2023/08/21 09:01:57;;;;;;;6.07;5.50;;;;;;;33.10;39.03;94876.09;6274584;22;20658;-84
2023/08/21 09:04:23;;;;;;;6.28;5.10;;;;;;;33.06;38.67;94865.31;6274599;22;20180;-84
2023/08/21 09:06:51;;;;;;;5.53;5.03;;;;;;;33.19;38.68;94866.81;6274308;22;20230;-83
2023/08/21 09:09:18;;;;;;;8.07;5.70;;;;;;;33.29;39.74;94924.34;6273999;22;20191;-83
2023/08/21 09:11:46;;;;;;;6.38;5.78;;;;;;;33.26;39.53;94925.78;6274134;22;20182;-84
2023/08/21 09:14:13;;;;;;;10.13;6.82;;;;;;;33.33;40.64;94972.47;6274676;22;20232;-83
2023/08/21 09:17:00;;;;;;;7.13;6.53;;;;;;;33.66;40.44;94993.66;6273667;22;20197;-83
2023/08/21 09:19:26;;;;;;;7.00;5.95;;;;;;;33.91;39.28;94910.47;6274458;22;20176;-83
2023/08/21 09:21:54;;;;;;;7.57;5.35;;;;;;;34.13;38.81;94878.94;6275402;22;20176;-84
2023/08/21 09:24:20;;;;;;;7.60;5.85;;;;;;;34.34;37.94;94862.69;6275918;22;20176;-83
2023/08/21 09:26:47;;;;;;;6.40;5.60;;;;;;;34.15;36.44;94756.47;6274504;22;20196;-84
2023/08/21 09:29:13;;;;;;;5.18;4.78;;;;;;;34.15;36.61;94748.44;6273834;22;20196;-83
2023/08/21 09:31:40;;;;;;;5.82;5.30;;;;;;;34.04;36.40;94756.22;6274107;22;20176;-83
2023/08/21 09:34:06;;;;;;;7.10;5.70;;;;;;;34.18;37.17;94799.31;6273720;22;20176;-84
2023/08/21 09:36:33;;;;;;;10.52;6.88;;;;;;;34.45;37.00;94796.88;6274510;22;20219;-84
2023/08/21 09:39:02;;;;;;;12.93;10.40;;;;;;;34.68;36.52;94772.94;6275156;22;20250;-83
2023/08/21 09:41:28;;;;;;;7.15;5.85;;;;;;;34.89;35.51;94709.97;6274562;22;20176;-84
2023/08/21 09:43:59;;;;;;;6.00;5.43;;;;;;;34.95;35.27;94699.78;6273124;22;20267;-83
2023/08/21 09:46:27;;;;;;;8.20;6.55;;;;;;;34.99;35.33;94703.31;6273807;22;20510;-84
2023/08/21 09:48:54;;;;;;;6.68;6.05;;;;;;;34.95;36.07;94731.88;6273015;22;20176;-83
2023/08/21 09:51:21;;;;;;;6.80;6.10;;;;;;;35.09;36.63;94769.63;6274061;22;20172;-83
2023/08/21 09:53:49;;;;;;;6.65;6.07;;;;;;;35.08;36.39;94754.69;6274405;22;20259;-83
2023/08/21 09:56:18;;;;;;;6.30;5.80;;;;;;;35.19;36.72;94779.00;6273211;22;20275;-83
2023/08/21 09:58:48;;;;;;;7.10;6.40;;;;;;;35.36;36.98;94800.03;6273707;22;20183;-83
2023/08/21 10:01:17;;;;;;;7.22;6.25;;;;;;;35.49;36.34;94776.53;6273100;22;20176;-83
2023/08/21 10:03:47;;;;;;;6.95;6.25;;;;;;;35.59;36.54;94794.72;6273035;22;20180;-83
2023/08/21 10:06:17;;;;;;;6.40;5.90;;;;;;;35.73;35.73;94752.09;6272740;22;20196;-83
2023/08/21 10:08:49;;;;;;;6.18;5.68;;;;;;;35.71;34.57;94679.34;6273439;22;20172;-83
2023/08/21 10:11:20;;;;;;;10.48;9.45;;;;;;;35.66;34.74;94683.09;6273203;22;20161;-83
2023/08/21 10:13:47;;;;;;;6.95;6.35;;;;;;;35.71;35.14;94700.78;6273903;22;20165;-83
2023/08/21 10:16:14;;;;;;;5.85;5.43;;;;;;;35.69;35.24;94697.69;6273732;22;20200;-83
2023/08/21 10:18:45;;;;;;;7.40;6.75;;;;;;;35.81;34.56;94657.31;6273034;22;20558;-83
2023/08/21 10:21:13;;;;;;;10.75;7.60;;;;;;;35.83;33.88;94616.78;6272610;22;20627;-83
2023/08/21 10:23:41;;;;;;;5.78;5.28;;;;;;;35.74;34.13;94635.00;6272600;22;20183;-83
2023/08/21 10:26:11;;;;;;;6.55;5.18;;;;;;;35.76;33.84;94617.47;6272923;22;20223;-83
2023/08/21 10:28:49;;;;;;;6.40;5.38;;;;;;;35.78;33.76;94599.13;6273129;22;20177;-83
2023/08/21 10:31:33;;;;;;;6.47;5.40;;;;;;;35.82;33.42;94575.03;6272864;22;20203;-83
2023/08/21 10:34:01;;;;;;;6.38;5.78;;;;;;;35.95;33.80;94616.59;6272881;22;20172;-83
2023/08/21 10:37:12;;;;;;;6.63;6.05;;;;;;;35.77;35.01;94696.72;6271683;22;20192;-83
2023/08/21 10:39:39;;;;;;;13.27;12.10;;;;;;;35.72;35.64;94718.41;6272502;22;20612;-83
2023/08/21 10:42:08;;;;;;;7.95;7.32;;;;;;;35.70;35.02;94682.38;6273232;22;20172;-83
2023/08/21 10:44:51;;;;;;;6.60;5.90;;;;;;;35.61;34.76;94661.19;6272940;22;20186;-83
2023/08/21 10:47:19;;;;;;;9.43;7.65;;;;;;;35.73;35.12;94703.09;6274099;22;20350;-84
2023/08/21 10:49:47;;;;;;;7.65;5.78;;;;;;;35.78;35.02;94673.38;6273503;22;20203;-83
2023/08/21 10:52:14;;;;;;;6.38;5.78;;;;;;;35.75;34.11;94621.25;6274472;22;20180;-84
2023/08/21 10:54:45;;;;;;;6.57;5.13;;;;;;;35.70;32.68;94543.09;6275213;22;20173;-83
2023/08/21 10:57:11;;;;;;;4.80;4.40;;;;;;;35.77;33.39;94561.97;6274306;22;20570;-84
2023/08/21 10:59:39;;;;;;;6.45;5.53;;;;;;;35.78;33.55;94598.34;6273512;22;20172;-83
2023/08/21 11:02:06;;;;;;;5.50;5.00;;;;;;;35.64;33.67;94607.69;6273483;22;20183;-83
2023/08/21 11:04:40;;;;;;;5.47;4.97;;;;;;;35.73;34.35;94642.25;6275018;22;20558;-83
2023/08/21 11:07:07;;;;;;;7.18;6.10;;;;;;;35.81;34.48;94673.41;6275412;22;20195;-83
2023/08/21 11:09:36;;;;;;;7.53;6.30;;;;;;;35.69;34.58;94662.84;6274338;22;20222;-83
2023/08/21 11:12:07;;;;;;;5.63;5.20;;;;;;;35.69;34.45;94628.03;6274374;22;20176;-84
2023/08/21 11:14:34;;;;;;;9.32;6.47;;;;;;;35.69;34.83;94676.25;6274826;22;20634;-83
2023/08/21 11:17:02;;;;;;;6.78;6.07;;;;;;;35.72;35.71;94715.72;6275178;22;20561;-83
2023/08/21 11:19:31;;;;;;;17.98;16.38;;;;;;;35.74;35.22;94718.06;6274887;22;20176;-83
2023/08/21 11:21:59;;;;;;;8.93;7.97;;;;;;;35.71;35.29;94716.09;6274850;22;20173;-84
2023/08/21 11:24:31;;;;;;;8.25;5.80;;;;;;;35.74;34.50;94684.00;6274602;22;20176;-84
2023/08/21 11:26:57;;;;;;;11.10;7.57;;;;;;;35.77;35.16;94694.03;6274333;22;20222;-84
2023/08/21 11:29:25;;;;;;;6.47;5.88;;;;;;;35.86;34.83;94691.09;6274023;22;20176;-83
2023/08/21 11:31:52;;;;;;;7.07;5.85;;;;;;;35.96;34.56;94661.00;6274501;22;20176;-83
2023/08/21 11:34:20;;;;;;;5.85;4.97;;;;;;;35.97;34.10;94647.25;6273792;22;20184;-84